• Join FlightAware (Why Join?)
  • Login
  • US Flag 
08:05AM EDT


 

Airport Tracker/Info


-or-


 

Live Flight TrackerFlight Track Log ✈ AWE710 ✈ 12-Apr-2013 ✈ KPHL - LSZH / ZRH

Flight Track Log - Related Links

Times and Time Zones

All times are in EDT time to prevent confusion due to time zone crossing. See the AWE710 flight status page for this flight to view local times or setup timezone preferences in your user account.

Time Position Orientation Groundspeed Altitude Reporting Facility
EDT Latitude Longitude Course Direction KTS MPH feet Rate Location/Type
11:13PM 39.8685 -75.2002 86° East 169 194 1,200  Level FlightAware ADS-B
11:13PM 39.8687 -75.1963 86° East 170 196 1,400 3,000 Climbing FlightAware ADS-B
11:13PM 39.8685 -75.1921 94° East 171 197 1,600 3,000 Climbing FlightAware ADS-B
11:13PM 39.8680 -75.1888 101° East 173 199 1,800 1,860 Climbing FlightAware ADS-B
11:13PM 39.8661 -75.1754 100° East 190 219 2,100 1,260 Climbing FlightAware ADS-B
11:13PM 39.8632 -75.1563 101° East 212 244 2,400 1,440 Climbing FlightAware ADS-B
11:14PM 39.8603 -75.1391 102° East 232 267 2,800 1,860 Climbing FlightAware ADS-B
11:14PM 39.8560 -75.1166 104° East 246 283 3,300 2,220 Climbing FlightAware ADS-B
11:14PM 39.8517 -75.0933 104° East 252 290 4,000 2,460 Climbing FlightAware ADS-B
11:14PM 39.8476 -75.0708 103° East 261 300 4,600 1,320 Climbing FlightAware ADS-B
11:15PM 39.8388 -75.0203 103° East 299 344 5,000 600 Climbing FlightAware ADS-B
11:15PM 39.8340 -74.9917 102° East 306 352 5,100 360 Climbing FlightAware ADS-B
11:15PM 39.8294 -74.9651 103° East 300 345 5,200 180 Climbing FlightAware ADS-B
11:16PM 39.8249 -74.9379 102° East 300 345 5,200  Level FlightAware ADS-B
11:16PM 39.8199 -74.9086 103° East 301 346 5,200  Level FlightAware ADS-B
11:16PM 39.8184 -74.9005 104° East 299 344 5,200  Level FlightAware ADS-B
11:16PM 39.8160 -74.8902 107° East 295 339 5,200  Level FlightAware ADS-B
11:16PM 39.8138 -74.8842 116° Southeast 293 337 5,200 1,260 Level FlightAware ADS-B
11:16PM 39.8026 -74.8612 122° Southeast 290 334 5,600 1,920 Climbing FlightAware ADS-B
11:17PM 39.7937 -74.8432 123° Southeast 293 337 6,100 3,060 Climbing FlightAware ADS-B
11:17PM 39.7777 -74.8123 124° Southeast 296 341 7,300 3,480 Climbing FlightAware ADS-B
11:17PM 39.7662 -74.7882 122° Southeast 299 344 8,200 3,240 Climbing FlightAware ADS-B
11:17PM 39.7554 -74.7651 121° Southeast 301 346 9,000 3,000 Climbing FlightAware ADS-B
11:18PM 39.7509 -74.7556 122° Southeast 302 348 9,300 3,060 Climbing FlightAware ADS-B
11:18PM 39.7266 -74.7100 125° Southeast 305 351 10,900 3,060 Climbing FlightAware ADS-B
11:19PM 39.6986 -74.6454 119° Southeast 332 382 12,900 3,000 Climbing FlightAware ADS-B
11:19PM 39.6974 -74.6252 94° East 342 394 13,400 2,400 Climbing FlightAware ADS-B
11:19PM 39.6981 -74.6003 88° East 353 406 13,800 2,460 Climbing FlightAware ADS-B
11:19PM 39.7011 -74.5740 82° East 361 415 14,400 2,700 Climbing FlightAware ADS-B
11:19PM 39.7063 -74.5491 75° East 366 421 14,900 2,520 Climbing FlightAware ADS-B
11:20PM 39.7154 -74.5204 68° East 372 428 15,500 2,580 Climbing FlightAware ADS-B
11:20PM 39.7384 -74.4592 64° Northeast 380 437 16,800 2,700 Climbing FlightAware ADS-B
11:20PM 39.7467 -74.4384 63° Northeast 385 443 17,300 2,280 Climbing FlightAware ADS-B
11:21PM 39.7762 -74.3749 59° Northeast 398 458 18,400 1,800 Climbing FlightAware ADS-B
11:21PM 39.8065 -74.3091 59° Northeast 424 488 19,200 1,620 Climbing FlightAware ADS-B
11:22PM 39.8394 -74.2395 58° Northeast 442 509 20,100 1,740 Climbing FlightAware ADS-B
11:22PM 39.8716 -74.1677 60° Northeast 452 520 21,000 1,860 Climbing FlightAware ADS-B
11:23PM 39.9058 -74.0904 60° Northeast 468 539 22,100 1,740 Climbing FlightAware ADS-B
11:24PM 39.9386 -74.0087 62° Northeast 481 554 22,900 780 Climbing FlightAware ADS-B
11:24PM 39.9706 -73.9246 64° Northeast 491 565 23,000 120 Climbing FlightAware ADS-B
11:24PM 39.9820 -73.8972 61° Northeast 490 564 23,000  Level FlightAware ADS-B
11:24PM 39.9937 -73.8748 56° Northeast 486 559 23,000  Level FlightAware ADS-B
11:25PM 40.0095 -73.8510 49° Northeast 481 554 23,000  Level FlightAware ADS-B
11:25PM 40.0251 -73.8316 44° Northeast 477 549 23,000  Level FlightAware ADS-B
11:25PM 40.0371 -73.8191 39° Northeast 474 545 23,000  Level FlightAware ADS-B
11:25PM 40.0908 -73.7670 37° Northeast 473 544 23,000  Level FlightAware ADS-B
11:26PM 40.1440 -73.7147 37° Northeast 475 547 23,000  Level FlightAware ADS-B
11:26PM 40.1976 -73.6625 37° Northeast 475 547 23,000  Level FlightAware ADS-B
11:27PM 40.2558 -73.6065 36° Northeast 492 566 23,000  Level FlightAware ADS-B
11:27PM 40.2637 -73.5983 38° Northeast 496 571 23,000  Level FlightAware ADS-B
11:27PM 40.2848 -73.5715 44° Northeast 500 575 23,000 180 Level FlightAware ADS-B
11:28PM 40.3100 -73.5266 54° Northeast 503 579 23,100 1,080 Climbing FlightAware ADS-B
11:28PM 40.3421 -73.4438 63° Northeast 507 583 23,900 1,620 Climbing FlightAware ADS-B
11:28PM 40.3507 -73.4186 66° East 509 586 24,200 2,340 Climbing FlightAware ADS-B
11:29PM 40.3811 -73.3281 66° East 505 581 25,500 2,040 Climbing FlightAware ADS-B
11:29PM 40.4087 -73.2392 68° East 507 583 26,400 1,560 Climbing FlightAware ADS-B
11:30PM 40.4345 -73.1526 69° East 515 593 27,100 1,440 Climbing FlightAware ADS-B
11:30PM 40.4611 -73.0617 69° East 520 598 27,900 1,440 Climbing FlightAware ADS-B
11:31PM 40.4935 -72.9494 69° East 526 605 28,800 1,440 Climbing FlightAware ADS-B
11:31PM 40.5212 -72.8530 69° East 529 609 29,600 1,320 Climbing FlightAware ADS-B
11:32PM 40.5476 -72.7603 69° East 537 618 30,200 1,140 Climbing FlightAware ADS-B
11:32PM 40.5742 -72.6662 70° East 543 625 30,800 1,320 Climbing FlightAware ADS-B
11:33PM 40.6032 -72.5646 69° East 546 628 31,600 1,620 Climbing FlightAware ADS-B
11:34PM 40.6321 -72.4636 69° East 544 626 32,600 1,860 Climbing FlightAware ADS-B
11:34PM 40.6609 -72.3629 69° East 538 619 33,700 1,680 Climbing FlightAware ADS-B
11:35PM 40.6899 -72.2600 70° East 536 617 34,500 1,200 Climbing FlightAware ADS-B
11:35PM 40.7163 -72.1654 70° East 541 623 35,000 480 Climbing FlightAware ADS-B
11:36PM 40.7428 -72.0693 70° East 550 633 35,000  Level FlightAware ADS-B
11:36PM 40.7802 -71.9330 70° East 544 626 35,000  Level FlightAware ADS-B
11:37PM 40.8160 -71.8020 70° East 539 620 35,000  Level FlightAware
11:38PM 40.8470 -71.6860 71° East 538 619 35,000 60 Level FlightAware
11:39PM 40.8880 -71.5370 70° East 538 619 35,100 540 Climbing FlightAware
11:39PM 40.9240 -71.4200 68° East 538 619 35,800 1,080 Climbing FlightAware
11:40PM 40.9660 -71.3220 60° Northeast 532 612 36,500 1,260 Climbing FlightAware
11:40PM 40.9841 -71.2855 57° Northeast 531 611 36,800 660 Climbing FlightAware ADS-B
11:40PM 41.0305 -71.2014 54° Northeast 535 616 37,000 180 Climbing FlightAware ADS-B
11:41PM 41.0769 -71.1166 54° Northeast 538 619 37,000  Level FlightAware ADS-B
11:42PM 41.1321 -71.0155 54° Northeast 535 616 37,000  Level FlightAware ADS-B
11:42PM 41.1761 -70.9352 54° Northeast 532 612 37,000  Level FlightAware ADS-B
11:45PM 41.4190 -70.4910 54° Northeast 522 601 37,000  Level FlightAware
11:46PM 41.5270 -70.2930 54° Northeast 520 598 37,000  Level FlightAware
11:47PM 41.5730 -70.2070 54° Northeast 521 600 37,000  Level FlightAware
11:48PM 41.6597 -70.0308 54° Northeast 519 597 37,000  Level Boston Center
11:49PM 41.7378 -69.8722 57° Northeast 524 603 37,000  Level Boston Center
11:55PM 42.2090 -68.9620 57° Northeast 521 600 37,000  Level FlightAware
11:56PM 42.3100 -68.7600 56° Northeast 520 598 37,000  Level FlightAware
11:57PM 42.4040 -68.5700 56° Northeast 520 598 37,000  Level FlightAware
11:58PM 42.4980 -68.3800 56° Northeast 521 600 37,000  Level FlightAware
11:59PM 42.5910 -68.1910 56° Northeast 523 602 37,000  Level FlightAware
12:01AM 42.6980 -67.9690 57° Northeast 526 605 37,000  Level FlightAware
12:02AM 42.7500 -67.8630 56° Northeast 526 605 37,000  Level FlightAware
12:02AM 42.7970 -67.7690 56° Northeast 526 605 37,000  Level FlightAware
12:03AM 42.8660 -67.6170 58° Northeast 529 609 37,000  Level FlightAware
12:04AM 42.9210 -67.5020 57° Northeast 530 610 37,000  Level FlightAware
12:05AM 42.9910 -67.3550 57° Northeast 531 611 37,000  Level FlightAware
12:05AM 43.0540 -67.2220 57° Northeast 37,000  Level FlightAware
12:06AM 43.1120 -67.0970 58° Northeast 528 608 37,000  Level FlightAware
12:07AM 43.1800 -66.9330 60° Northeast 530 610 37,000  Level FlightAware
12:08AM 43.2210 -66.7990 67° East 534 615 37,000  Level FlightAware
12:08AM 43.2600 -66.6770 66° East 533 613 37,000  Level FlightAware
12:09AM 43.3020 -66.5450 66° East 532 612 37,000  Level FlightAware
12:10AM 43.3400 -66.4270 66° East 532 612 37,000  Level FlightAware
12:10AM 43.3870 -66.2770 67° East 531 611 37,000  Level FlightAware
12:11AM 43.4310 -66.1340 67° East 531 611 37,000  Level FlightAware
12:12AM 43.4690 -66.0130 67° East 531 611 37,000  Level FlightAware
12:13AM 43.5130 -65.8700 67° East 528 608 37,000  Level FlightAware
12:13AM 43.5510 -65.7470 67° East 529 609 37,000  Level FlightAware
12:14AM 43.5890 -65.6190 68° East 530 610 37,000  Level FlightAware
12:15AM 43.6310 -65.4810 67° East 530 610 37,000  Level FlightAware
12:15AM 43.6690 -65.3570 67° East 529 609 37,000  Level FlightAware
12:16AM 43.7120 -65.2130 68° East 528 608 37,000  Level FlightAware
12:17AM 43.7490 -65.0900 67° East 526 605 37,000  Level FlightAware
12:17AM 43.7870 -64.9630 67° East 526 605 37,000  Level FlightAware
12:18AM 43.8280 -64.8230 68° East 525 604 37,000  Level FlightAware
12:19AM 43.8650 -64.6980 68° East 528 608 37,000  Level FlightAware
12:20AM 43.9020 -64.5700 68° East 528 608 37,000  Level FlightAware
12:20AM 43.9360 -64.4500 68° East 528 608 37,000  Level FlightAware
12:21AM 43.9860 -64.2760 68° East 528 608 37,000  Level FlightAware
12:22AM 44.0180 -64.1690 67° East 528 608 37,000  Level FlightAware
12:23AM 44.0560 -64.0350 68° East 528 608 37,000  Level FlightAware
12:23AM 44.0880 -63.9280 67° East 528 608 37,000  Level FlightAware
12:24AM 44.1190 -63.8210 68° East 528 608 37,000  Level FlightAware
12:25AM 44.1500 -63.7130 68° East 528 608 37,000  Level FlightAware
12:25AM 44.1810 -63.6060 68° East 528 608 37,000  Level FlightAware
12:26AM 44.2200 -63.4720 68° East 528 608 37,000  Level FlightAware
12:27AM 44.2510 -63.3640 68° East 528 608 37,000  Level FlightAware
12:27AM 44.2820 -63.2570 68° East 528 608 37,000  Level FlightAware
12:28AM 44.3130 -63.1490 68° East 528 608 37,000  Level FlightAware
12:29AM 44.3440 -63.0420 68° East 528 608 37,000  Level FlightAware
12:30AM 44.3830 -62.9070 68° East 528 608 37,000  Level FlightAware
12:30AM 44.4140 -62.7990 68° East 528 608 37,000  Level FlightAware
12:31AM 44.4833 -62.4500 68° East 530 610 37,000  Level Moncton Center
12:32AM 44.5500 -62.2333 67° East 530 610 37,000  Level Moncton Center
12:33AM 44.6000 -62.0500 69° East 530 610 37,000  Level Moncton Center
12:34AM 44.6500 -61.8667 69° East 530 610 37,000  Level Moncton Center
12:35AM 44.7000 -61.6667 71° East 530 610 37,000  Level Moncton Center
12:36AM 44.7500 -61.4833 69° East 520 598 37,000  Level Moncton Center
12:37AM 44.8000 -61.2833 71° East 530 610 37,000  Level Moncton Center
12:38AM 44.8333 -61.1000 76° East 520 598 37,000  Level Moncton Center
12:39AM 44.9000 -60.8833 66° East 530 610 37,000  Level Moncton Center
12:40AM 44.9500 -60.6833 70° East 530 610 37,000  Level Moncton Center
12:45AM 45.1780 -59.7640 70° East 536 617 37,000  Level FlightAware
12:46AM 45.2270 -59.5590 71° East 535 616 37,000  Level FlightAware
12:47AM 45.2680 -59.3850 71° East 536 617 37,000  Level FlightAware
12:48AM 45.3210 -59.1610 71° East 535 616 37,000  Level FlightAware
12:49AM 45.3550 -59.0130 72° East 535 616 37,000  Level FlightAware
12:49AM 45.3870 -58.8790 71° East 536 617 37,000  Level FlightAware
12:50AM 45.4200 -58.7330 72° East 535 616 37,000  Level FlightAware
12:51AM 45.4510 -58.6020 71° East 534 615 37,000  Level FlightAware
12:51AM 45.4800 -58.4720 72° East 535 616 37,000  Level FlightAware
12:52AM 45.5060 -58.3580 72° East 535 616 37,000  Level FlightAware
12:53AM 45.5320 -58.2430 72° East 535 616 37,000  Level FlightAware
12:53AM 45.5650 -58.1010 72° East 535 616 37,000  Level FlightAware
12:54AM 45.5910 -57.9860 72° East 535 616 37,000  Level FlightAware
12:55AM 45.6170 -57.8720 72° East 535 616 37,000  Level FlightAware
12:55AM 45.6430 -57.7570 72° East 535 616 37,000  Level FlightAware
12:56AM 45.6690 -57.6430 72° East 535 616 37,000  Level FlightAware
12:57AM 45.6950 -57.5280 72° East 535 616 37,000  Level FlightAware
12:58AM 45.7270 -57.3850 72° East 535 616 37,000  Level FlightAware
12:58AM 45.7530 -57.2700 72° East 535 616 37,000  Level FlightAware
12:59AM 45.8390 -56.8430 74° East 536 617 37,000  Level FlightAware
01:00AM 45.8740 -56.6720 74° East 536 617 37,000  Level FlightAware
01:01AM 45.8990 -56.5560 73° East 536 617 37,000  Level FlightAware
01:01AM 45.9300 -56.4110 73° East 536 617 37,000  Level FlightAware
01:02AM 45.9550 -56.2960 73° East 536 617 37,000  Level FlightAware
01:03AM 45.9980 -56.0660 75° East 536 617 37,000  Level FlightAware
01:03AM 46.0240 -55.9310 74° East 535 616 37,000  Level FlightAware
01:04AM 46.0560 -55.7700 74° East 535 616 37,000  Level FlightAware
01:05AM 46.0790 -55.6530 74° East 535 616 37,000  Level FlightAware
01:06AM 46.1080 -55.5070 74° East 535 616 37,000  Level FlightAware
01:06AM 46.1320 -55.3910 73° East 535 616 37,000  Level FlightAware
01:07AM 46.1550 -55.2740 74° East 535 616 37,000  Level FlightAware
01:08AM 46.1780 -55.1570 74° East 535 616 37,000  Level FlightAware
01:08AM 46.2010 -55.0400 74° East 535 616 37,000  Level FlightAware
01:09AM 46.2300 -54.8940 74° East 535 616 37,000  Level FlightAware
01:10AM 46.2530 -54.7770 74° East 535 616 37,000  Level FlightAware
01:11AM 46.3050 -54.4430 77° East 533 613 37,000  Level FlightAware
01:11AM 46.3300 -54.3060 75° East 533 613 37,000  Level FlightAware
01:12AM 46.3570 -54.1510 76° East 534 615 37,000  Level FlightAware
01:13AM 46.3810 -54.0110 76° East 534 615 37,000  Level FlightAware
01:13AM 46.4050 -53.8730 76° East 535 616 37,000  Level FlightAware
01:14AM 46.4310 -53.7190 76° East 536 617 37,000  Level FlightAware
01:15AM 46.4550 -53.5730 77° East 536 617 37,000  Level FlightAware
01:16AM 46.4810 -53.4200 76° East 537 618 37,000  Level FlightAware
01:16AM 46.5050 -53.2800 76° East 536 617 37,000  Level FlightAware
01:17AM 46.5280 -53.1420 76° East 535 616 37,000  Level FlightAware
01:18AM 46.5510 -53.0030 76° East 535 616 37,000  Level FlightAware
01:18AM 46.5710 -52.8870 76° East 535 616 37,000  Level FlightAware
01:19AM 46.6010 -52.7030 77° East 535 616 37,000  Level FlightAware
01:20AM 46.6260 -52.5480 77° East 534 615 37,000 60 Level FlightAware
01:20AM 46.6480 -52.4080 77° East 537 618 37,100 600 Climbing FlightAware
01:21AM 46.6730 -52.2480 77° East 536 617 37,900 600 Climbing FlightAware
01:22AM 46.6950 -52.1060 77° East 543 625 38,000 60 Climbing FlightAware
01:23AM 46.7170 -51.9630 77° East 541 623 38,000  Level FlightAware
01:23AM 46.7410 -51.8060 77° East 534 615 38,000  Level FlightAware
01:24AM 46.7620 -51.6700 77° East 531 611 38,000  Level FlightAware
01:25AM 46.7860 -51.5080 78° East 528 608 38,000  Level FlightAware
01:25AM 46.8080 -51.3670 77° East 528 608 38,000  Level FlightAware
01:26AM 46.8310 -51.2190 77° East 528 608 38,000  Level FlightAware
01:27AM 46.8500 -51.1010 77° East 528 608 38,000  Level FlightAware
01:28AM 46.8690 -50.9820 77° East 528 608 38,000  Level FlightAware
01:28AM 46.8870 -50.8640 77° East 528 608 38,000  Level FlightAware
01:29AM 46.9110 -50.7160 77° East 528 608 38,000  Level FlightAware
01:30AM 46.9290 -50.5970 77° East 528 608 38,000  Level FlightAware
01:30AM 46.9480 -50.4790 77° East 528 608 38,000  Level FlightAware
01:31AM 46.9760 -50.3010 77° East 528 608 38,000  Level FlightAware
01:32AM 46.9950 -50.1820 77° East 528 608 38,000  Level FlightAware
01:33AM 47.0130 -50.0640 77° East 528 608 38,000  Level FlightAware
01:33AM 47.0320 -49.9450 77° East 528 608 38,000  Level FlightAware
01:34AM 47.0000 -50.0000 70° East 512 589 38,000  Level ETMS Enhanced Traffic Management System
01:34AM 47.0550 -49.7970 77° East 528 608 38,000  Level FlightAware
01:35AM 47.0740 -49.6780 77° East 528 608 38,000  Level FlightAware
01:38AM 47.1963 -49.1830 70° East  Level FlightAware Approximate
01:39AM 47.2434 -48.9895 70° East  Level FlightAware Approximate
01:40AM 47.3848 -48.4220 71° East 512 589 38,000  Level FlightAware Transoceanic
01:41AM 47.4314 -48.2232 71° East 512 589 38,000  Level FlightAware Transoceanic
01:42AM 47.4776 -48.0240 71° East 512 589 38,000  Level FlightAware Transoceanic
01:43AM 47.5235 -47.8245 71° East 512 589 38,000  Level FlightAware Transoceanic
01:44AM 47.5691 -47.6246 71° East 512 589 38,000  Level FlightAware Transoceanic
01:45AM 47.6143 -47.4243 72° East 512 589 38,000  Level FlightAware Transoceanic
01:46AM 47.6591 -47.2237 72° East 512 589 38,000  Level FlightAware Transoceanic
01:47AM 47.7036 -47.0228 72° East 512 589 38,000  Level FlightAware Transoceanic
01:48AM 47.7477 -46.8215 72° East 512 589 38,000  Level FlightAware Transoceanic
01:49AM 47.7915 -46.6199 72° East 512 589 38,000  Level FlightAware Transoceanic
01:50AM 47.8349 -46.4180 72° East 512 589 38,000  Level FlightAware Transoceanic
01:51AM 47.8780 -46.2157 72° East 512 589 38,000  Level FlightAware Transoceanic
01:52AM 47.9207 -46.0131 73° East 512 589 38,000  Level FlightAware Transoceanic
01:53AM 47.9631 -45.8101 73° East 512 589 38,000  Level FlightAware Transoceanic
01:54AM 48.0051 -45.6068 73° East 512 589 38,000  Level FlightAware Transoceanic
01:55AM 48.0468 -45.4032 73° East 512 589 38,000  Level FlightAware Transoceanic
01:56AM 48.0881 -45.1993 73° East 512 589 38,000  Level FlightAware Transoceanic
01:57AM 48.1290 -44.9950 73° East 512 589 38,000  Level FlightAware Transoceanic
01:58AM 48.1695 -44.7904 74° East 512 589 38,000  Level FlightAware Transoceanic
01:59AM 48.2097 -44.5855 74° East 512 589 38,000  Level FlightAware Transoceanic
02:00AM 48.2496 -44.3802 74° East 512 589 38,000  Level FlightAware Transoceanic
02:01AM 48.2890 -44.1747 74° East 512 589 38,000  Level FlightAware Transoceanic
02:02AM 48.3282 -43.9688 74° East 512 589 38,000  Level FlightAware Transoceanic
02:03AM 48.3669 -43.7626 74° East 512 589 38,000  Level FlightAware Transoceanic
02:04AM 48.4053 -43.5561 74° East 512 589 38,000  Level FlightAware Transoceanic
02:05AM 48.4432 -43.3493 75° East 512 589 38,000  Level FlightAware Transoceanic
02:06AM 48.4809 -43.1422 75° East 512 589 38,000  Level FlightAware Transoceanic
02:07AM 48.5181 -42.9348 75° East 512 589 38,000  Level FlightAware Transoceanic
02:08AM 48.5550 -42.7271 75° East 512 589 38,000  Level FlightAware Transoceanic
02:09AM 48.5915 -42.5190 75° East 512 589 38,000  Level FlightAware Transoceanic
02:10AM 48.6276 -42.3107 75° East 512 589 38,000  Level FlightAware Transoceanic
02:11AM 48.6634 -42.1021 76° East 512 589 38,000  Level FlightAware Transoceanic
02:12AM 48.6988 -41.8931 76° East 512 589 38,000  Level FlightAware Transoceanic
02:13AM 48.7338 -41.6839 76° East 512 589 38,000  Level FlightAware Transoceanic
02:14AM 48.7684 -41.4744 76° East 512 589 38,000  Level FlightAware Transoceanic
02:15AM 48.8026 -41.2646 76° East 512 589 38,000  Level FlightAware Transoceanic
02:16AM 48.8365 -41.0546 76° East 512 589 38,000  Level FlightAware Transoceanic
02:17AM 48.8699 -40.8442 76° East 512 589 38,000  Level FlightAware Transoceanic
02:18AM 48.9030 -40.6336 77° East 512 589 38,000  Level FlightAware Transoceanic
02:19AM 48.9357 -40.4226 77° East 512 589 38,000  Level FlightAware Transoceanic
02:20AM 48.9681 -40.2115 77° East 512 589 38,000  Level FlightAware Transoceanic
02:21AM 48.9994 -40.0042 77° East  Level FlightAware Approximate
02:22AM 49.0304 -39.7967 77° East  Level FlightAware Approximate
02:23AM 49.0285 -39.8004 78° East  Level FlightAware Approximate
02:24AM 49.0579 -39.5922 78° East  Level FlightAware Approximate
02:24AM 49.0000 -40.0000 77° East 482 555 38,000  Level ETMS Enhanced Traffic Management System
02:25AM 49.0868 -39.3838 78° East  Level FlightAware Approximate
02:26AM 49.1154 -39.1751 78° East  Level FlightAware Approximate
02:27AM 49.1437 -38.9662 78° East  Level FlightAware Approximate
02:28AM 49.1715 -38.7570 78° East  Level FlightAware Approximate
02:29AM 49.1990 -38.5476 79° East  Level FlightAware Approximate
02:30AM 49.1952 -38.5988 79° East 482 555 38,000  Level FlightAware Transoceanic
02:31AM 49.2216 -38.3977 79° East 482 555 38,000  Level FlightAware Transoceanic
02:32AM 49.2478 -38.1965 79° East 482 555 38,000  Level FlightAware Transoceanic
02:33AM 49.2736 -37.9950 79° East 482 555 38,000  Level FlightAware Transoceanic
02:34AM 49.2990 -37.7933 79° East 482 555 38,000  Level FlightAware Transoceanic
02:35AM 49.3241 -37.5914 79° East 482 555 38,000  Level FlightAware Transoceanic
02:36AM 49.3489 -37.3893 79° East 482 555 38,000  Level FlightAware Transoceanic
02:37AM 49.3732 -37.1870 80° East 482 555 38,000  Level FlightAware Transoceanic
02:38AM 49.3973 -36.9845 80° East 482 555 38,000  Level FlightAware Transoceanic
02:39AM 49.4210 -36.7818 80° East 482 555 38,000  Level FlightAware Transoceanic
02:40AM 49.4443 -36.5789 80° East 482 555 38,000  Level FlightAware Transoceanic
02:41AM 49.4672 -36.3758 80° East 482 555 38,000  Level FlightAware Transoceanic
02:42AM 49.4899 -36.1725 80° East 482 555 38,000  Level FlightAware Transoceanic
02:43AM 49.5121 -35.9690 81° East 482 555 38,000  Level FlightAware Transoceanic
02:44AM 49.5340 -35.7654 81° East 482 555 38,000  Level FlightAware Transoceanic
02:45AM 49.5555 -35.5616 81° East 482 555 38,000  Level FlightAware Transoceanic
02:46AM 49.5767 -35.3576 81° East 482 555 38,000  Level FlightAware Transoceanic
02:47AM 49.5976 -35.1534 81° East 482 555 38,000  Level FlightAware Transoceanic
02:48AM 49.6180 -34.9490 81° East 482 555 38,000  Level FlightAware Transoceanic
02:49AM 49.6381 -34.7445 81° East 482 555 38,000  Level FlightAware Transoceanic
02:50AM 49.6579 -34.5398 82° East 482 555 38,000  Level FlightAware Transoceanic
02:51AM 49.6772 -34.3349 82° East 482 555 38,000  Level FlightAware Transoceanic
02:52AM 49.6963 -34.1299 82° East 482 555 38,000  Level FlightAware Transoceanic
02:53AM 49.7149 -33.9247 82° East 482 555 38,000  Level FlightAware Transoceanic
02:54AM 49.7332 -33.7194 82° East 482 555 38,000  Level FlightAware Transoceanic
02:55AM 49.7512 -33.5139 82° East 482 555 38,000  Level FlightAware Transoceanic
02:56AM 49.7687 -33.3083 83° East 482 555 38,000  Level FlightAware Transoceanic
02:57AM 49.7859 -33.1025 83° East 482 555 38,000  Level FlightAware Transoceanic
02:58AM 49.8028 -32.8966 83° East 482 555 38,000  Level FlightAware Transoceanic
02:59AM 49.8192 -32.6905 83° East 482 555 38,000  Level FlightAware Transoceanic
03:00AM 49.8354 -32.4843 83° East 482 555 38,000  Level FlightAware Transoceanic
03:01AM 49.8511 -32.2779 83° East 482 555 38,000  Level FlightAware Transoceanic
03:02AM 49.8665 -32.0714 83° East 482 555 38,000  Level FlightAware Transoceanic
03:03AM 49.8815 -31.8648 84° East 482 555 38,000  Level FlightAware Transoceanic
03:04AM 49.8961 -31.6581 84° East 482 555 38,000  Level FlightAware Transoceanic
03:05AM 49.9104 -31.4512 84° East 482 555 38,000  Level FlightAware Transoceanic
03:06AM 49.9243 -31.2443 84° East 482 555 38,000  Level FlightAware Transoceanic
03:07AM 49.9379 -31.0372 84° East 482 555 38,000  Level FlightAware Transoceanic
03:08AM 49.9510 -30.8300 84° East 482 555 38,000  Level FlightAware Transoceanic
03:09AM 49.9638 -30.6226 85° East 482 555 38,000  Level FlightAware Transoceanic
03:10AM 49.9762 -30.4152 85° East 482 555 38,000  Level FlightAware Transoceanic
03:11AM 49.9883 -30.2076 85° East 482 555 38,000  Level FlightAware Transoceanic
03:12AM 50.0005 -29.9913 85° East  Level FlightAware Approximate
03:13AM 50.0055 -29.9848 61° Northeast  Level FlightAware Approximate
03:14AM 50.0735 -29.7951 61° Northeast  Level FlightAware Approximate
03:15AM 50.1413 -29.6048 61° Northeast  Level FlightAware Approximate
03:16AM 50.2088 -29.4140 61° Northeast  Level FlightAware Approximate
03:17AM 50.2759 -29.2226 61° Northeast  Level FlightAware Approximate
03:17AM 50.0000 -30.0000 60° Northeast 507 583 38,000  Level ETMS Enhanced Traffic Management System
03:18AM 50.3427 -29.0307 61° Northeast  Level FlightAware Approximate
03:19AM 50.4092 -28.8383 61° Northeast  Level FlightAware Approximate
03:20AM 50.4749 -28.6449 62° Northeast  Level FlightAware Approximate
03:21AM 50.5403 -28.4509 62° Northeast  Level FlightAware Approximate
03:22AM 50.6053 -28.2564 62° Northeast  Level FlightAware Approximate
03:23AM 50.6699 -28.0613 62° Northeast  Level FlightAware Approximate
03:24AM 50.8117 -27.6734 62° Northeast 507 583 38,000  Level FlightAware Transoceanic
03:25AM 50.8772 -27.4759 62° Northeast 507 583 38,000  Level FlightAware Transoceanic
03:26AM 50.9424 -27.2779 63° Northeast 507 583 38,000  Level FlightAware Transoceanic
03:27AM 51.0073 -27.0793 63° Northeast 507 583 38,000  Level FlightAware Transoceanic
03:28AM 51.0718 -26.8801 63° Northeast 507 583 38,000  Level FlightAware Transoceanic
03:29AM 51.1359 -26.6804 63° Northeast 507 583 38,000  Level FlightAware Transoceanic
03:30AM 51.1998 -26.4802 63° Northeast 507 583 38,000  Level FlightAware Transoceanic
03:31AM 51.2633 -26.2794 63° Northeast 507 583 38,000  Level FlightAware Transoceanic
03:32AM 51.3264 -26.0780 63° Northeast 507 583 38,000  Level FlightAware Transoceanic
03:33AM 51.3892 -25.8761 64° Northeast 507 583 38,000  Level FlightAware Transoceanic
03:34AM 51.4517 -25.6736 64° Northeast 507 583 38,000  Level FlightAware Transoceanic
03:35AM 51.5138 -25.4706 64° Northeast 507 583 38,000  Level FlightAware Transoceanic
03:36AM 51.5755 -25.2670 64° Northeast 507 583 38,000  Level FlightAware Transoceanic
03:37AM 51.6369 -25.0629 64° Northeast 507 583 38,000  Level FlightAware Transoceanic
03:38AM 51.6980 -24.8582 64° Northeast 507 583 38,000  Level FlightAware Transoceanic
03:39AM 51.7586 -24.6530 65° Northeast 507 583 38,000  Level FlightAware Transoceanic
03:40AM 51.8190 -24.4472 65° Northeast 507 583 38,000  Level FlightAware Transoceanic
03:41AM 51.8789 -24.2409 65° Northeast 507 583 38,000  Level FlightAware Transoceanic
03:42AM 51.9385 -24.0340 65° Northeast 507 583 38,000  Level FlightAware Transoceanic
03:43AM 51.9978 -23.8265 65° Northeast 507 583 38,000  Level FlightAware Transoceanic
03:44AM 52.0567 -23.6185 65° Northeast 507 583 38,000  Level FlightAware Transoceanic
03:45AM 52.1152 -23.4100 66° East 507 583 38,000  Level FlightAware Transoceanic
03:46AM 52.1733 -23.2010 66° East 507 583 38,000  Level FlightAware Transoceanic
03:47AM 52.2311 -22.9913 66° East 507 583 38,000  Level FlightAware Transoceanic
03:48AM 52.2885 -22.7812 66° East 507 583 38,000  Level FlightAware Transoceanic
03:49AM 52.3455 -22.5705 66° East 507 583 38,000  Level FlightAware Transoceanic
03:50AM 52.4022 -22.3592 66° East 507 583 38,000  Level FlightAware Transoceanic
03:51AM 52.4584 -22.1474 67° East 507 583 38,000  Level FlightAware Transoceanic
03:52AM 52.5143 -21.9351 67° East 507 583 38,000  Level FlightAware Transoceanic
03:53AM 52.5698 -21.7222 67° East 507 583 38,000  Level FlightAware Transoceanic
03:54AM 52.6250 -21.5088 67° East 507 583 38,000  Level FlightAware Transoceanic
03:55AM 52.6797 -21.2949 67° East 507 583 38,000  Level FlightAware Transoceanic
03:56AM 52.7341 -21.0804 67° East 507 583 38,000  Level FlightAware Transoceanic
03:57AM 52.7880 -20.8654 68° East 507 583 38,000  Level FlightAware Transoceanic
03:58AM 52.8416 -20.6498 68° East 507 583 38,000  Level FlightAware Transoceanic
03:59AM 52.8948 -20.4337 68° East 507 583 38,000  Level FlightAware Transoceanic
04:00AM 52.9476 -20.2171 68° East 507 583 38,000  Level FlightAware Transoceanic
04:01AM 52.9995 -20.0020 68° East  Level FlightAware Approximate
04:02AM 53.0510 -19.7862 68° East  Level FlightAware Approximate
04:03AM 52.9523 -19.7866 110° East  Level FlightAware Approximate
04:04AM 52.9034 -19.5698 110° East  Level FlightAware Approximate
04:05AM 52.8540 -19.3534 111° Southeast  Level FlightAware Approximate
04:06AM 52.8043 -19.1376 111° Southeast  Level FlightAware Approximate
04:07AM 52.7541 -18.9222 111° Southeast  Level FlightAware Approximate
04:08AM 52.7036 -18.7073 111° Southeast  Level FlightAware Approximate
04:09AM 52.6527 -18.4930 111° Southeast  Level FlightAware Approximate
04:10AM 52.6014 -18.2791 111° Southeast  Level FlightAware Approximate
04:11AM 52.5497 -18.0657 112° Southeast  Level FlightAware Approximate
04:12AM 52.4976 -17.8528 112° Southeast  Level FlightAware Approximate
04:13AM 52.4452 -17.6405 112° Southeast  Level FlightAware Approximate
04:14AM 52.3923 -17.4286 112° Southeast  Level FlightAware Approximate
04:15AM 52.3391 -17.2173 112° Southeast  Level FlightAware Approximate
04:16AM 52.2856 -17.0064 112° Southeast  Level FlightAware Approximate
04:17AM 52.2316 -16.7961 113° Southeast  Level FlightAware Approximate
04:18AM 52.1773 -16.5863 113° Southeast  Level FlightAware Approximate
04:19AM 52.1226 -16.3770 113° Southeast  Level FlightAware Approximate
04:20AM 52.0675 -16.1682 113° Southeast  Level FlightAware Approximate
04:21AM 52.0121 -15.9599 113° Southeast  Level FlightAware Approximate
04:22AM 51.9563 -15.7522 113° Southeast  Level FlightAware Approximate
04:23AM 51.9001 -15.5449 114° Southeast  Level FlightAware Approximate
04:24AM 51.8436 -15.3382 114° Southeast  Level FlightAware Approximate
04:25AM 51.7867 -15.1320 114° Southeast  Level FlightAware Approximate
04:26AM 51.7289 -14.9268 115° Southeast  Level FlightAware Approximate
04:27AM 51.6699 -14.7227 115° Southeast  Level FlightAware Approximate
04:28AM 51.6105 -14.5191 115° Southeast  Level FlightAware Approximate
04:29AM 51.5507 -14.3161 115° Southeast  Level FlightAware Approximate
04:30AM 51.4906 -14.1136 115° Southeast  Level FlightAware Approximate
04:31AM 51.4311 -13.9110 115° Southeast  Level FlightAware Approximate
04:32AM 51.3718 -13.7084 115° Southeast  Level FlightAware Approximate
04:33AM 51.3122 -13.5064 115° Southeast  Level FlightAware Approximate
04:33AM 52.6840 -12.8980 115° Southeast 546 628 39,000  Level FlightAware
04:33AM 52.6750 -12.7140 95° East 542 624 39,000  Level FlightAware
04:34AM 52.6670 -12.5540 95° East 540 621 39,000  Level FlightAware
04:35AM 52.6590 -12.3880 94° East 538 619 39,000  Level FlightAware
04:35AM 52.6500 -12.2050 95° East 537 618 39,000  Level FlightAware
04:36AM 52.6410 -12.0400 95° East 538 619 39,000  Level FlightAware
04:37AM 52.6320 -11.8810 95° East 538 619 39,000  Level FlightAware
04:38AM 52.6220 -11.7050 95° East 539 620 39,000  Level FlightAware
04:38AM 52.6150 -11.5720 95° East 540 621 39,000  Level FlightAware
04:39AM 52.6030 -11.3650 95° East 541 623 39,000  Level FlightAware
04:40AM 52.5930 -11.2040 96° East 542 624 39,000  Level FlightAware
04:40AM 52.5820 -11.0210 96° East 544 626 39,000  Level FlightAware
04:41AM 52.5720 -10.8670 96° East 546 628 39,000  Level FlightAware
04:42AM 52.5610 -10.6970 96° East 547 629 39,000  Level FlightAware
04:42AM 52.5510 -10.5400 96° East 549 632 39,000  Level FlightAware
04:43AM 52.5320 -10.2600 96° East 550 633 39,000  Level FlightAware
04:44AM 52.5210 -10.1060 97° East 552 635 39,000  Level FlightAware
04:45AM 52.5090 -9.9280 96° East 552 635 39,000  Level FlightAware
04:45AM 52.4960 -9.7430 97° East 552 635 39,000  Level FlightAware
04:46AM 52.4830 -9.5660 97° East 551 634 39,000  Level FlightAware
04:47AM 52.4700 -9.3900 97° East 552 635 39,000  Level FlightAware
04:48AM 52.4580 -9.2250 97° East 551 634 39,000 -1,020 Level FlightAware
04:48AM 52.4460 -8.9540 97° East 454 522 37,500 -1,320 Descending FlightAware UK
04:49AM 52.4401 -8.8797 97° East 454 522 37,500 4,980 Level FlightAware UK
04:49AM 52.4330 -8.9110 97° East 552 635 39,000  Climbing FlightAware
04:49AM 52.4335 -8.8045 97° East 456 525 37,500 -2,520 Descending FlightAware UK
04:49AM 52.4275 -8.7304 98° East 456 525 37,500 3,300 Level FlightAware UK
04:49AM 52.4190 -8.7440 98° East 552 635 39,000  Climbing FlightAware
04:50AM 52.4191 -8.6312 98° East 454 522 37,500 -2,760 Descending FlightAware UK
04:50AM 52.4131 -8.5568 97° East 456 525 37,500 3,600 Level FlightAware UK
04:50AM 52.4040 -8.5710 97° East 550 633 39,000  Climbing FlightAware
04:50AM 52.4049 -8.4574 97° East 454 522 37,500 -2,580 Descending FlightAware UK
04:51AM 52.3988 -8.3832 98° East 454 522 37,500 3,180 Level FlightAware UK
04:51AM 52.3890 -8.3860 98° East 550 633 39,000  Climbing FlightAware
04:51AM 52.3887 -8.2584 98° East 454 522 37,500  Descending FlightAware UK
04:52AM 52.3760 -8.2210 98° East 552 635 39,000  Climbing FlightAware
04:52AM 52.3766 -8.1097 98° East 452 520 37,500 -2,700 Descending FlightAware UK
04:52AM 52.3705 -8.0354 98° East 454 522 37,500 4,680 Level FlightAware UK
04:52AM 52.3650 -8.0960 98° East 551 634 39,000  Climbing FlightAware
04:52AM 52.3641 -7.9611 98° East 454 522 37,500 -2,580 Descending FlightAware UK
04:53AM 52.3572 -7.8869 99° East 454 522 37,500 2,700 Level FlightAware UK
04:53AM 52.3450 -7.8680 99° East 551 634 39,000  Climbing FlightAware
04:53AM 52.3454 -7.7638 99° East 456 525 37,500 -2,760 Descending FlightAware UK
04:54AM 52.3384 -7.6899 99° East 456 525 37,500 3,600 Level FlightAware UK
04:54AM 52.3300 -7.7110 99° East 550 633 39,000  Climbing FlightAware
04:54AM 52.3273 -7.5669 99° East 454 522 37,500  Descending FlightAware UK
04:54AM 52.3130 -7.5220 99° East 552 635 39,000  Climbing FlightAware
04:55AM 52.3121 -7.3945 99° East 454 522 37,500  Descending FlightAware UK
04:55AM 52.2990 -7.3670 99° East 551 634 39,000  Climbing FlightAware
04:55AM 52.2988 -7.2464 99° East 454 522 37,500 -2,700 Descending FlightAware UK
04:56AM 52.2921 -7.1724 98° East 454 522 37,500 3,720 Level FlightAware UK
04:56AM 52.2830 -7.1850 98° East 551 634 39,000  Climbing FlightAware
04:56AM 52.2830 -7.0731 98° East 454 522 37,500 -2,520 Descending FlightAware UK
04:56AM 52.2760 -6.9994 99° East 456 525 37,500 3,300 Level FlightAware UK
04:56AM 52.2660 -7.0010 99° East 550 633 39,000  Climbing FlightAware
04:57AM 52.2669 -6.9013 99° East 456 525 37,500 -2,760 Descending FlightAware UK
04:57AM 52.2597 -6.8279 99° East 454 522 37,500 3,600 Level FlightAware UK
04:57AM 52.2500 -6.8350 99° East 549 632 39,000  Climbing FlightAware
04:57AM 52.2501 -6.7302 99° East 454 522 37,500 -2,580 Descending FlightAware UK
04:58AM 52.2429 -6.6570 99° East 454 522 37,500 3,180 Level FlightAware UK
04:58AM 52.2330 -6.6560 99° East 548 631 39,000  Climbing FlightAware
04:58AM 52.2307 -6.5351 99° East 454 522 37,500  Descending FlightAware UK
04:59AM 52.2160 -6.4880 99° East 548 631 39,000  Climbing FlightAware
04:59AM 52.2160 -6.3892 99° East 454 522 37,500 -2,700 Descending FlightAware UK
04:59AM 52.2083 -6.3164 100° East 454 522 37,500 3,720 Level FlightAware UK
04:59AM 52.1990 -6.3280 100° East 547 629 39,000  Climbing FlightAware
05:00AM 52.1954 -6.1951 100° East 456 525 37,500  Descending FlightAware UK
05:00AM 52.1820 -6.1700 100° East 547 629 39,000  Climbing FlightAware
05:00AM 52.1798 -6.0498 100° East 454 522 37,500 -2,400 Descending FlightAware UK
05:01AM 52.1720 -5.9772 100° East 452 520 37,500 3,600 Level FlightAware UK
05:01AM 52.1630 -5.9860 100° East 546 628 39,000  Climbing FlightAware
05:01AM 52.1613 -5.8797 100° East 454 522 37,500 -2,580 Descending FlightAware UK
05:01AM 52.1492 -5.8084 105° East 452 520 37,500 3,900 Level FlightAware UK
05:01AM 52.1410 -5.8270 105° East 547 629 39,000  Climbing FlightAware
05:02AM 52.1318 -5.7147 105° East 452 520 37,500 -2,460 Descending FlightAware UK
05:02AM 52.1196 -5.6434 105° East 454 522 37,500 3,420 Level FlightAware UK
05:02AM 52.1100 -5.6450 105° East 548 631 39,000  Climbing FlightAware
05:02AM 52.1061 -5.5478 105° East 454 522 37,500 -2,700 Descending FlightAware UK
05:03AM 52.0954 -5.4762 104° East 454 522 37,500 3,720 Level FlightAware UK
05:03AM 52.0890 -5.5030 104° East 547 629 39,000  Climbing FlightAware
05:03AM 52.0817 -5.3806 104° East 452 520 37,500 -2,520 Descending FlightAware UK
05:03AM 52.0721 -5.3086 102° East 454 522 37,500 3,300 Level FlightAware UK
05:03AM 52.0640 -5.3160 102° East 547 629 39,000  Climbing FlightAware
05:04AM 52.0598 -5.2126 102° East 452 520 37,500  Descending FlightAware UK
05:04AM 52.0430 -5.1550 102° East 547 629 39,000  Climbing FlightAware
05:04AM 52.0389 -5.0444 102° East 454 522 37,500 -2,580 Descending FlightAware UK
05:05AM 52.0303 -4.9724 101° East 452 520 37,500 3,900 Level FlightAware UK
05:05AM 52.0240 -4.9960 101° East 548 631 39,000  Climbing FlightAware
05:05AM 52.0184 -4.8762 101° East 452 520 37,500 -2,460 Descending FlightAware UK
05:05AM 52.0095 -4.8040 101° East 454 522 37,500 3,420 Level FlightAware UK
05:06AM 52.0000 -4.8030 101° East 549 632 39,000  Climbing FlightAware
05:06AM 51.9976 -4.7069 101° East 454 522 37,500 -2,700 Descending FlightAware UK
05:06AM 51.9887 -4.6346 101° East 452 520 37,500 3,720 Level FlightAware UK
05:06AM 51.9820 -4.6510 101° East 549 632 39,000  Climbing FlightAware
05:07AM 51.9737 -4.5143 101° East 452 520 37,500  Descending FlightAware UK
05:07AM 51.9610 -4.4820 101° East 551 634 39,000  Climbing FlightAware
05:07AM 51.9522 -4.3458 101° East 452 520 37,500  Descending FlightAware UK
05:08AM 51.9390 -4.3110 101° East 552 635 39,000  Climbing FlightAware
05:08AM 51.9300 -4.1768 101° East 454 522 37,500  Descending FlightAware UK
05:08AM 51.9170 -4.1410 101° East 553 636 39,000  Climbing FlightAware
05:09AM 51.9074 -4.0079 101° East 454 522 37,500  Descending FlightAware UK
05:09AM 51.8930 -3.9640 101° East 553 636 39,000  Climbing FlightAware
05:09AM 51.8876 -3.8625 101° East 454 522 37,500 -2,580 Descending FlightAware UK
05:10AM 51.8777 -3.7903 103° East 456 525 37,500 3,900 Level FlightAware UK
05:10AM 51.8710 -3.8010 103° East 554 638 39,000  Climbing FlightAware
05:10AM 51.8638 -3.6942 103° East 454 522 37,500 -2,460 Descending FlightAware UK
05:10AM 51.8528 -3.6223 104° East 456 525 37,500 4,260 Level FlightAware UK
05:10AM 51.8470 -3.6380 104° East 554 638 39,000  Climbing FlightAware
05:11AM 51.8417 -3.5504 104° East 458 527 37,500 -2,760 Descending FlightAware UK
05:11AM 51.8305 -3.4777 104° East 456 525 37,500 3,000 Level FlightAware UK
05:11AM 51.8200 -3.4620 104° East 554 638 39,000  Climbing FlightAware
05:12AM 51.8084 -3.3339 104° East 456 525 37,500  Descending FlightAware UK
05:12AM 51.7950 -3.2990 104° East 554 638 39,000  Climbing FlightAware
05:12AM 51.7819 -3.1659 104° East 456 525 37,500  Descending FlightAware UK
05:12AM 51.7700 -3.1360 104° East 553 636 39,000  Climbing FlightAware
05:13AM 51.7634 -3.0465 104° East 458 527 37,500  Descending FlightAware UK
05:13AM 51.7420 -2.9520 104° East 552 635 39,000  Climbing FlightAware
05:14AM 51.7335 -2.8554 104° East 458 527 37,500  Descending FlightAware UK
05:14AM 51.7157 -2.7858 104° East 551 634 39,000  Climbing FlightAware ADS-B
05:14AM 51.7070 -2.6895 104° East 456 525 37,500  Descending FlightAware UK
05:14AM 51.6969 -2.6659 104° East 550 633 39,000  Climbing FlightAware ADS-B
05:15AM 51.6882 -2.5714 104° East 456 525 37,500  Descending FlightAware UK
05:15AM 51.6778 -2.5449 104° East 549 632 39,000 2,220 Climbing FlightAware ADS-B
05:15AM 51.6586 -2.4258 105° East 548 631 39,000  Level FlightAware ADS-B
05:16AM 51.6380 -2.2959 104° East 547 629 39,000 -1,800 Level FlightAware ADS-B
05:16AM 51.6309 -2.2173 104° East 454 522 37,500  Descending FlightAware UK
05:16AM 51.6186 -2.1774 104° East 547 629 39,000  Climbing FlightAware ADS-B
05:17AM 51.6116 -2.1006 104° East 456 525 37,500  Descending FlightAware UK
05:17AM 51.5993 -2.0599 104° East 546 628 39,000 2,040 Climbing FlightAware ADS-B
05:17AM 51.5791 -1.9367 105° East 544 626 39,000 -1,920 Level FlightAware ADS-B
05:18AM 51.5727 -1.8669 105° East 456 525 37,500  Descending FlightAware UK
05:18AM 51.5587 -1.8137 105° East 543 625 39,000 1,860 Climbing FlightAware ADS-B
05:19AM 51.5382 -1.6924 105° East 543 625 39,000 -1,800 Level FlightAware ADS-B
05:19AM 51.5294 -1.6113 105° East 456 525 37,500  Descending FlightAware UK
05:19AM 51.5186 -1.5755 105° East 541 623 39,000  Climbing FlightAware ADS-B
05:19AM 51.5098 -1.4960 105° East 456 525 37,500  Descending FlightAware UK
05:20AM 51.4987 -1.4583 105° East 540 621 39,000 2,040 Climbing FlightAware ADS-B
05:20AM 51.4785 -1.3390 105° East 539 620 39,000 -1,680 Level FlightAware ADS-B
05:20AM 51.4661 -1.2427 105° East 454 522 37,500  Descending FlightAware UK
05:21AM 51.4572 -1.2161 105° East 539 620 39,000  Climbing FlightAware ADS-B
05:21AM 51.4460 -1.1290 105° East 454 522 37,500  Descending FlightAware UK
05:21AM 51.4368 -1.1012 105° East 537 618 39,000  Climbing FlightAware ADS-B
05:21AM 51.4293 -1.0363 105° East 454 522 37,500  Descending FlightAware UK
05:22AM 51.4156 -0.9830 105° East 537 618 39,000 1,860 Climbing FlightAware ADS-B
05:22AM 51.3934 -0.8599 106° East 535 616 39,000 -1,800 Level FlightAware ADS-B
05:22AM 51.3836 -0.7868 106° East 456 525 37,500  Descending FlightAware UK
05:23AM 51.3723 -0.7439 106° East 534 615 39,000 2,040 Climbing FlightAware ADS-B
05:23AM 51.3508 -0.6259 106° East 534 615 39,000 -1,680 Level FlightAware ADS-B
05:24AM 51.3380 -0.5375 106° East 452 520 37,500  Descending FlightAware UK
05:24AM 51.3300 -0.5102 106° East 533 613 39,000  Climbing FlightAware ADS-B
05:24AM 51.3216 -0.4463 106° East 450 518 37,500  Descending FlightAware UK
05:24AM 51.3096 -0.3962 106° East 533 613 39,000  Climbing FlightAware ADS-B
05:25AM 51.2973 -0.3109 106° East 448 516 37,500  Descending FlightAware UK
05:25AM 51.2859 -0.2639 106° East 535 616 39,000 2,040 Climbing FlightAware ADS-B
05:25AM 51.2643 -0.1444 106° East 534 615 39,000  Level FlightAware ADS-B
05:26AM 51.2432 -0.0291 106° East 534 615 39,000  Level FlightAware ADS-B
05:26AM 51.2213 0.0892 106° East 534 615 39,000  Level FlightAware ADS-B
05:27AM 51.1997 0.2060 106° East 534 615 39,000  Level FlightAware ADS-B
05:27AM 51.1781 0.3217 107° East 533 613 39,000  Level FlightAware ADS-B
05:28AM 51.1570 0.4348 107° East 532 612 39,000  Level FlightAware ADS-B
05:28AM 51.1359 0.5477 107° East 531 611 39,000  Level FlightAware ADS-B
05:29AM 51.1135 0.6665 107° East 531 611 39,000 -1,680 Level FlightAware ADS-B
05:29AM 51.0997 0.7475 107° East 460 529 37,500  Descending FlightAware UK
05:29AM 51.0919 0.7791 107° East 531 611 39,000  Climbing FlightAware ADS-B
05:30AM 51.0823 0.8373 107° East 460 529 37,500  Descending FlightAware UK
05:30AM 51.0696 0.8941 107° East 530 610 39,000  Climbing FlightAware ADS-B
05:30AM 51.0604 0.9483 107° East 462 532 37,500  Descending FlightAware UK
05:31AM 51.0418 1.0363 107° East 529 609 39,000  Climbing FlightAware ADS-B
05:31AM 51.0297 1.1040 107° East 460 529 37,500  Descending FlightAware UK
05:31AM 51.0116 1.1896 107° East 527 606 39,000  Climbing FlightAware ADS-B
05:32AM 50.9988 1.2582 107° East 462 532 37,500  Descending FlightAware UK
05:32AM 50.9882 1.3061 107° East 525 604 39,000  Climbing FlightAware ADS-B
05:32AM 50.9769 1.3685 107° East 464 534 37,500  Descending FlightAware UK
05:33AM 50.9531 1.4728 107° East 523 602 39,000  Climbing FlightAware ADS-B
05:33AM 50.9371 1.5401 107° East 458 527 37,500 -2,400 Descending FlightAware UK
05:33AM 50.9183 1.6029 115° Southeast 458 527 37,500 2,460 Level FlightAware UK
05:33AM 50.8960 1.6624 115° Southeast 521 600 39,000 2,520 Climbing FlightAware ADS-B
05:34AM 50.8722 1.7147 126° Southeast 519 597 39,000  Level FlightAware ADS-B
05:34AM 50.8343 1.7818 132° Southeast 517 595 39,000 -2,100 Level FlightAware ADS-B
05:34AM 50.8015 1.8329 132° Southeast 458 527 37,500  Descending FlightAware UK
05:35AM 50.7840 1.8642 132° Southeast 516 594 39,000  Climbing FlightAware ADS-B
05:35AM 50.7518 1.9141 132° Southeast 458 527 37,500 -2,460 Descending FlightAware UK
05:35AM 50.7216 1.9623 135° Southeast 458 527 37,500 3,060 Level FlightAware UK
05:35AM 50.7070 1.9880 135° Southeast 509 586 39,000  Climbing FlightAware
05:36AM 50.6710 2.0427 135° Southeast 458 527 37,500  Descending FlightAware UK
05:36AM 50.6535 2.0733 135° Southeast 515 593 39,000 2,160 Climbing FlightAware ADS-B
05:36AM 50.6015 2.1561 135° Southeast 514 592 39,000 -1,620 Level FlightAware ADS-B
05:37AM 50.5607 2.2180 135° Southeast 458 527 37,500 -1,500 Descending FlightAware UK
05:37AM 50.5006 2.3133 135° Southeast 458 527 37,500 1,800 Level FlightAware UK
05:38AM 50.4810 2.3460 135° Southeast 512 589 39,000  Climbing FlightAware
05:38AM 50.4401 2.4074 135° Southeast 458 527 37,500  Descending FlightAware UK
05:38AM 50.4160 2.4470 135° Southeast 511 588 39,000 1,680 Climbing FlightAware
05:39AM 50.3570 2.5390 135° Southeast 510 587 39,000 -2,460 Level FlightAware
05:39AM 50.3493 2.5480 135° Southeast 458 527 37,500 -2,100 Descending FlightAware UK
05:40AM 50.2790 2.6574 135° Southeast 458 527 37,500 2,040 Level FlightAware UK
05:40AM 50.2780 2.6600 135° Southeast 509 586 39,000 1,920 Climbing FlightAware
05:40AM 50.2060 2.7710 135° Southeast 508 585 39,000 -1,440 Level FlightAware
05:41AM 50.1684 2.8273 135° Southeast 458 527 37,500  Descending FlightAware UK
05:41AM 50.1420 2.8750 135° Southeast 508 585 39,000  Climbing FlightAware
05:41AM 50.1133 2.9275 135° Southeast 458 527 37,500 -2,700 Descending FlightAware UK
05:42AM 50.0868 2.9790 129° Southeast 458 527 37,500 3,060 Level FlightAware UK
05:42AM 50.0780 3.0000 129° Southeast 508 585 39,000  Climbing FlightAware
05:42AM 50.0431 3.0661 129° Southeast 458 527 37,500  Descending FlightAware UK
05:42AM 50.0280 3.1010 127° Southeast 508 585 39,000  Climbing FlightAware
05:42AM 50.0174 3.1184 127° Southeast 458 527 37,500 -4,500 Descending FlightAware UK
05:43AM 49.9920 3.1711 127° Southeast 458 527 37,500  Level FlightAware UK
05:43AM 49.9583 3.2411 127° Southeast 458 527 37,500 3,600 Level FlightAware UK
05:43AM 49.9620 3.2370 127° Southeast 507 583 39,000  Climbing FlightAware
05:44AM 49.9246 3.3113 127° Southeast 458 527 37,500  Descending FlightAware UK
05:44AM 49.8910 3.3810 127° Southeast 507 583 39,000 1,320 Climbing FlightAware
05:45AM 49.8360 3.4950 127° Southeast 505 581 39,000  Level FlightAware
05:45AM 49.7760 3.6170 127° Southeast 504 580 39,000 -1,560 Level FlightAware
05:46AM 49.7467 3.6751 127° Southeast 1 1 37,500  Descending FlightAware UK
05:46AM 49.7180 3.7360 127° Southeast 504 580 39,000 1,260 Climbing FlightAware
05:47AM 49.6580 3.8580 127° Southeast 503 579 39,000  Level FlightAware
05:48AM 49.5940 3.9870 127° Southeast 503 579 39,000 -1,260 Level FlightAware
05:48AM 49.5424 4.0868 127° Southeast 1 1 37,500  Descending FlightAware UK
05:48AM 49.5400 4.0970 127° Southeast 503 579 39,000  Climbing FlightAware
05:49AM 49.5000 4.1724 127° Southeast 1 1 37,500 -2,220 Descending FlightAware UK
05:49AM 49.4746 4.2241 127° Southeast 1 1 37,500 4,080 Level FlightAware UK
05:49AM 49.4770 4.2230 127° Southeast 503 579 39,000  Climbing FlightAware
05:49AM 49.4241 4.3281 127° Southeast 1 1 37,500  Descending FlightAware UK
05:50AM 49.4280 4.3210 127° Southeast 502 578 39,000 1,860 Climbing FlightAware
05:50AM 49.3640 4.4470 128° Southeast 502 578 39,000 -1,140 Level FlightAware
05:51AM 49.3042 4.5663 128° Southeast 1 1 37,500  Descending FlightAware UK
05:51AM 49.2970 4.5790 128° Southeast 502 578 39,000  Climbing FlightAware
05:51AM 49.2700 4.6335 128° Southeast 1 1 37,500  Descending FlightAware UK
05:52AM 49.2440 4.6830 128° Southeast 502 578 39,000 1,260 Climbing FlightAware
05:52AM 49.1760 4.8070 130° Southeast 501 577 39,000  Level FlightAware
05:53AM 49.1150 4.9170 130° Southeast 502 578 39,000 -540 Level FlightAware
05:54AM 49.0360 5.0620 130° Southeast 504 580 38,200 -1,080 Descending FlightAware
05:55AM 48.9700 5.1800 130° Southeast 502 578 37,200 -1,380 Descending FlightAware
05:55AM 48.9110 5.2870 130° Southeast 504 580 36,300 -1,380 Descending FlightAware
05:56AM 48.8480 5.3980 131° Southeast 514 592 35,400 -1,500 Descending FlightAware
05:57AM 48.7790 5.5180 131° Southeast 520 598 34,200 -1,440 Descending FlightAware
05:58AM 48.7200 5.6220 131° Southeast 522 601 33,400 -1,200 Descending FlightAware
05:58AM 48.6630 5.7240 130° Southeast 519 597 32,600 -1,080 Descending FlightAware
05:59AM 48.5970 5.8410 130° Southeast 508 585 31,900 -1,080 Descending FlightAware
06:00AM 48.5540 5.9170 131° Southeast 509 586 31,200 -1,680 Descending FlightAware
06:00AM 48.4640 6.0740 131° Southeast 510 587 29,800 -1,740 Descending FlightAware
06:01AM 48.3910 6.2020 131° Southeast 508 585 28,600 -1,680 Descending FlightAware
06:02AM 48.3200 6.3250 131° Southeast 510 587 27,200 -1,800 Descending FlightAware
06:02AM 48.2570 6.4330 131° Southeast 498 573 26,100 -1,440 Descending FlightAware
06:03AM 48.2020 6.5280 131° Southeast 469 540 25,300 -1,320 Descending FlightAware
06:04AM 48.1340 6.6410 132° Southeast 425 489 24,300 -1,320 Descending FlightAware
06:05AM 48.0840 6.7250 132° Southeast 394 453 23,500 -1,200 Descending FlightAware
06:05AM 48.0330 6.8120 131° Southeast 367 422 22,600 -1,500 Descending FlightAware
06:06AM 47.9880 6.8890 131° Southeast 363 418 21,400 -1,620 Descending FlightAware
06:07AM 47.9450 6.9620 131° Southeast 350 403 20,500 -1,440 Descending FlightAware
06:07AM 47.8960 7.0450 131° Southeast 347 399 19,400 -1,500 Descending FlightAware
06:08AM 47.8550 7.1160 131° Southeast 343 395 18,400 -1,020 Descending FlightAware
06:09AM 47.8080 7.1940 132° Southeast 336 387 18,000 -360 Descending FlightAware
06:09AM 47.7670 7.2630 131° Southeast 328 377 17,900 -720 Descending FlightAware
06:10AM 47.7260 7.3320 131° Southeast 329 379 17,100 -1,380 Descending FlightAware
06:11AM 47.6810 7.4070 132° Southeast 332 382 16,000 -1,380 Descending FlightAware
06:12AM 47.6400 7.4800 130° Southeast 327 376 15,200 -1,200 Descending FlightAware
06:12AM 47.6120 7.5720 114° Southeast 317 365 14,300 -1,320 Descending FlightAware
06:13AM 47.5910 7.6490 112° Southeast 311 358 13,400 -1,200 Descending FlightAware
06:14AM 47.5670 7.7370 112° Southeast 299 344 12,600 -1,200 Descending FlightAware
06:14AM 47.5470 7.8140 111° Southeast 290 334 11,700 -1,620 Descending FlightAware
06:15AM 47.5280 7.8850 112° Southeast 286 329 10,500 -1,980 Descending FlightAware
06:16AM 47.5140 7.9430 110° East 283 326 9,400 -2,040 Descending FlightAware
06:16AM 47.5030 7.9980 106° East 280 322 8,500 -1,680 Descending FlightAware
06:16AM 47.5050 8.0140 80° East 283 326 8,300 -1,500 Descending FlightAware
06:16AM 47.5110 8.0330 65° Northeast 278 320 8,000 -1,620 Descending FlightAware
06:17AM 47.5330 8.0560 35° Northeast 268 308 7,500 -1,200 Descending FlightAware
06:17AM 47.5680 8.0660 11° North 261 300 7,000 -780 Descending FlightAware
06:18AM 47.5950 8.0750 13° North 245 282 6,800 -360 Descending FlightAware
06:18AM 47.6200 8.0840 14° North 246 283 6,700 -420 Descending FlightAware
06:18AM 47.6410 8.0980 24° Northeast 245 282 6,500 -720 Descending FlightAware
06:19AM 47.6520 8.1200 53° Northeast 243 280 6,300 -780 Descending FlightAware
06:20AM 47.6580 8.2310 85° East 243 280 5,400 -780 Descending FlightAware
06:20AM 47.6520 8.2730 102° East 230 265 5,100 -600 Descending FlightAware
06:20AM 47.6450 8.2860 129° Southeast 210 242 5,000 -900 Descending FlightAware
06:21AM 47.6300 8.3110 132° Southeast 207 238 4,600 -1,020 Descending FlightAware
06:21AM 47.6040 8.3460 138° Southeast 200 230 4,100 -780 Descending FlightAware
06:22AM 47.5830 8.3750 137° Southeast 198 228 3,800 -720 Descending FlightAware
06:22AM 47.5740 8.3870 138° Southeast 196 226 3,600 -900 Descending FlightAware
06:23AM 47.5590 8.4070 138° Southeast 196 226 3,200 -1,200 Descending FlightAware
06:23AM 47.5390 8.4350 137° Southeast 182 209 2,600 -1,080 Descending FlightAware
06:24AM 47.5070 8.4800 136° Southeast 151 174 1,700 -900 Descending FlightAware
06:24AM 47.4990 8.4900 140° Southeast 152 175 1,500 -720 Descending FlightAware
06:25AM 47.4900 8.5030 136° Southeast 152 175 1,300 -300 Descending FlightAware
06:25AM 47.4770 8.5210 137° Southeast 152 175 1,300  Level FlightAware